Tiempo atmosférico en la estación meteorológica de La Póveda de Soria, Barriomartín, Soria (1260 m.)



Fecha
DESCASC
Temp. máxima en grados centígrados (hora)
DESCASC
Temp. mínima en grados centígrados (hora)
DESCASC
Temp. media en grados centígrados
DESCASC
Racha de viento máxima en m/sg (hora)
DESCASC
Velocidad máxima media en intervalos de 10 minutos(hora)
DESCASC
Precipitaciones diarias en mm
DESCASC
Precipitaciones de 00:00 a 06:00 en mm
DESCASC
Precipitaciones de 06:00 a 12:00 en mm
DESCASC
Precipitaciones de 12:00 a 18:00 en mm
DESCASC
Precipitaciones de 18:00 a 24:00 en mm
DESCASC
13-01-2021 8.2 (15:10) -1.2 (01:00) 3.5 10 (05:50) 6.11 (06:00) 0 0 0 0 0
12-01-2021 5.9 (13:10) -4.8 (00:00) 0.5 12.5 (23:40) 8.33 (23:30) 0.4 0 0.4 0 0
11-01-2021 -0.8 (14:10) -5.3 (04:40) -3.1 20 (09:00) 12.78 (11:20) 0.2 0 0 0.2 0
10-01-2021 -2.1 (12:50) -5.3 (21:40) -3.7 17.78 (21:00) 10.28 (20:30) 1.4 0 0 1.4 0
09-01-2021 -2.2 (21:40) -5.9 (-00:0) -4.1 10.56 (10:30) 6.94 (11:20) 0 0 0 0 0
08-01-2021 -1 (12:00) -10.9 (-00:0) -5.9 8.06 (12:50) 4.72 (20:30) 0 0 0 0 0
07-01-2021 -1.5 (14:40) -10 (-00:0) -5.8 9.17 (10:40) 5 (12:50) 0 0 0 0 0
06-01-2021 -0.1 (13:20) -9.8 (-00:0) -5 6.39 (01:30) 3.61 (06:00) 0 0 0 0 0
05-01-2021 0.2 (13:50) -8.4 (-00:0) -4.1 6.11 (13:30) 3.06 (12:10) 0.2 0 0.2 0 0
04-01-2021 2.6 (14:10) -11.7 (-00:0) -4.5 11.11 (20:40) 6.11 (19:40) 0.6 0 0.6 0 0
03-01-2021 3.2 (13:10) -4.9 (-00:0) -0.9 11.67 (00:10) 6.94 (00:10) 2 0 1 1 0
02-01-2021 -2.3 (14:10) -4.5 (-00:0) -3.4 18.61 (19:40) 11.11 (19:40) 0 0 0 0 0
01-01-2021 3.2 (14:30) -4 (-00:0) -0.4 12.5 (20:40) 7.22 (23:59) 3.2 0 2.8 0.4 0
31-12-2020 3.7 (14:00) -5 (-00:0) -0.6 8.33 (13:40) 4.17 (13:40) 0.4 0 0.2 0.2 0
30-12-2020 2.7 (14:50) -4.1 (-00:0) -0.7 14.72 (00:20) 8.06 (01:10) 0 0 0 0 0
29-12-2020 4.3 (12:50) -3.6 (-00:0) 0.4 12.78 (21:10) 7.22 (23:50) 0.4 0 0.4 0 0
28-12-2020 3.2 (13:40) -1 (-00:0) 1.1 19.17 (03:20) 7.78 (03:30) 9.8 6.6 1.8 1.4 0
27-12-2020 4.1 (13:00) -6.6 (-00:0) -1.3 19.72 (20:10) 10 (20:10) 1.2 0 0 0 1.2
26-12-2020 0.3 (12:40) -5.1 (-00:0) -2.4 17.5 (06:00) 10 (03:40) 0 0 0 0 0
25-12-2020 1.4 (00:30) -2.4 (-00:0) -0.5 16.67 (05:30) 10.83 (05:30) 0.4 0.2 0 0.2 0
24-12-2020 5 (00:40) 0.7 (00:00) 2.8 10.56 (16:10) 6.11 (16:10) 0.2 0.2 0 0 0
23-12-2020 8.4 (15:50) 3.2 (04:50) 5.8 6.11 (14:50) 3.33 (14:50) 1 0 0 0.2 0.8
21-12-2020 8.3 (15:20) 0.5 (00:00) 4.4 2.5 (04:30) 1.94 (05:30) 0.6 0.6 0 0 0
20-12-2020 7.4 (13:40) -1.9 (-00:0) 2.8 3.89 (14:00) 2.22 (14:00) 0.2 0 0.2 0 0
19-12-2020 5.6 (15:40) 1.8 (00:00) 3.7 6.94 (06:20) 3.89 (06:30) 4.2 0 0.4 1.6 2.2
18-12-2020 3.9 (12:10) -4 (-00:0) 0 4.72 (23:59) 2.78 (01:30) 0 0 0 0 0
17-12-2020 9.5 (14:00) -1.6 (-00:0) 3.9 5.28 (15:00) 3.06 (15:20) 0 0 0 0 0

Gráficas

Temp. máximas Temp. mínimas Temp. medias Precipitaciones Rachas de viento máximas Velocidades máximas media en intervalos de 10 minutos

Datos horarios

Fecha y hora oficial Temperatura (ºC) Velocidad del viento (km/h) Dirección del viento Racha (km/h) Dirección de racha Precipitación (mm) Presión (hPa) Tendencia (hPa) Humedad (%)
2021-01-15 23:00:00 -0.1 22 Norte 41 Norte 0 -- -- 83
2021-01-15 22:00:00 -0.1 18 Norte 36 Norte 0 -- -- 84
2021-01-15 21:00:00 0.1 21 Norte 40 Nordeste 0 -- -- 82
2021-01-15 20:00:00 0.2 15 Norte 44 Norte 0 -- -- 82
2021-01-15 19:00:00 0.6 28 Norte 44 Norte 0 -- -- 81
2021-01-15 18:00:00 0.9 27 Norte 49 Norte 0 -- -- 79
2021-01-15 17:00:00 1.8 20 Norte 36 Norte 0 -- -- 77
2021-01-15 16:00:00 2.7 9 Norte 32 Norte 0 -- -- 73
2021-01-15 15:00:00 3 16 Norte 39 Norte 0 -- -- 72
2021-01-15 14:00:00 1.9 19 Norte 36 Noroeste 0 -- -- 76
2021-01-15 13:00:00 2.9 23 Norte 44 Noroeste 0 -- -- 70
2021-01-15 12:00:00 1.7 18 Norte 41 Noroeste 0 -- -- 81
2021-01-15 11:00:00 1.5 8 Norte 27 Noroeste 0 -- -- 83
2021-01-15 10:00:00 1 11 Norte 27 Noroeste 0 -- -- 83
2021-01-15 09:00:00 0.7 13 Norte 37 Norte 0 -- -- 82
2021-01-15 08:00:00 0.5 13 Norte 32 Norte 0 -- -- 83
2021-01-15 07:00:00 0.6 9 Norte 33 Noroeste 0 -- -- 83
2021-01-15 06:00:00 0.5 11 Norte 37 Norte 0 -- -- 80
2021-01-15 05:00:00 1 20 Norte 36 Norte 0 -- -- 80
2021-01-15 04:00:00 1.3 18 Norte 35 Norte 0 -- -- 81
2021-01-15 03:00:00 1.3 16 Norte 33 Norte 0 -- -- 80
2021-01-15 02:00:00 1.9 15 Norte 54 Noroeste 0 -- -- 79
2021-01-15 01:00:00 2.5 19 Norte 43 Norte 0 -- -- 81
2021-01-15 00:00:00 2.9 17 Norte 46 Norte 0 -- -- 81
2021-01-14 23:00:00 3.2 18 Norte 42 Noroeste 0 -- -- 83
2021-01-14 22:00:00 3.5 20 Norte 44 Norte 0 -- -- 86
2021-01-14 21:00:00 3.6 22 Norte 44 Norte 0 -- -- 89
2021-01-14 20:00:00 3.6 18 Norte 47 Norte 0 -- -- 89
2021-01-14 19:00:00 3.3 22 Norte 37 Norte 0 -- -- 91
2021-01-14 18:00:00 3.3 17 Norte 33 Nordeste 0 -- -- 89
2021-01-14 17:00:00 3.6 15 Norte 32 Noroeste 0 -- -- 86
2021-01-14 16:00:00 5 20 Norte 47 Norte 0 -- -- 71
2021-01-14 15:00:00 6.8 22 Norte 54 Noroeste 0 -- -- 35
2021-01-14 14:00:00 7.8 29 Norte 48 Noroeste 0 -- -- 30
2021-01-14 13:00:00 8.1 10 Norte 44 Norte 0 -- -- 30
2021-01-14 12:00:00 6.7 25 Norte 46 Noroeste 0 -- -- 33
2021-01-14 11:00:00 6.9 18 Norte 30 Norte 0 -- -- 30
2021-01-14 10:00:00 5.3 20 Noroeste 31 Norte 0 -- -- 35
2021-01-14 09:00:00 3.3 18 Norte 38 Norte 0 -- -- 38
2021-01-14 08:00:00 3.3 21 Norte 34 Norte 0 -- -- 37
2021-01-14 07:00:00 3.2 18 Norte 32 Norte 0 -- -- 37
2021-01-14 06:00:00 2.7 15 Norte 32 Norte 0 -- -- 36
2021-01-14 05:00:00 2.6 18 Noroeste 29 Noroeste 0 -- -- 35
2021-01-14 04:00:00 2.1 13 Norte 21 Norte 0 -- -- 36
2021-01-14 03:00:00 1.8 12 Noroeste 17 Noroeste 0 -- -- 35
2021-01-14 02:00:00 1.5 9 Oeste 18 Norte 0 -- -- 38
2021-01-14 01:00:00 0.8 12 Noroeste 25 Noroeste 0 -- -- 45
2021-01-14 00:00:00 2.2 18 Noroeste 26 Noroeste 0 -- -- 41
2021-01-13 23:00:00 3 14 Noroeste 22 Noroeste 0 -- -- 38
2021-01-13 22:00:00 1.9 11 Noroeste 26 Norte 0 -- -- 44
2021-01-13 21:00:00 3.3 19 Norte 30 Norte 0 -- -- 40
2021-01-13 20:00:00 2.8 15 Norte 23 Norte 0 -- -- 45
2021-01-13 19:00:00 3.2 7 Norte 30 Norte 0 -- -- 53
2021-01-13 18:00:00 4.1 18 Norte 34 Norte 0 -- -- 53
2021-01-13 17:00:00 6.1 15 Norte 25 Norte 0 -- -- 46
2021-01-13 16:00:00 7.9 5 Norte 14 Norte 0 -- -- 34
2021-01-13 15:00:00 8.1 2 Sur 13 Sur 0 -- -- 39
2021-01-13 14:00:00 6.4 6 Sur 17 Sur 0 -- -- 48
2021-01-13 13:00:00 7.2 12 Sur 17 Sur 0 -- -- 46
2021-01-13 12:00:00 6.4 8 Sur 13 Sur 0 -- -- 45
2021-01-13 11:00:00 4.1 0 Calma 14 Sudeste 0 -- -- 55
2021-01-13 10:00:00 2.9 3 Sudeste 7 Sur 0 -- -- 57
2021-01-13 09:00:00 0.3 3 Sudeste 22 Norte 0 -- -- 66
2021-01-13 08:00:00 1.5 13 Norte 33 Norte 0 -- -- 60
2021-01-13 07:00:00 1.2 17 Norte 31 Noroeste 0 -- -- 58
2021-01-13 06:00:00 1.6 22 Noroeste 36 Norte 0 -- -- 54
2021-01-13 05:00:00 1.3 16 Noroeste 22 Norte 0 -- -- 54
2021-01-13 04:00:00 -0.8 4 Sudoeste 14 Norte 0 -- -- 65
2021-01-13 03:00:00 0 9 Noroeste 16 Oeste 0 -- -- 64
2021-01-13 02:00:00 -0.3 9 Noroeste 26 Norte 0 -- -- 64
2021-01-13 01:00:00 -1.2 15 Norte 31 Norte 0 -- -- 74
2021-01-13 00:00:00 -0.1 21 Norte 45 Norte 0 -- -- 67
2021-01-12 23:00:00 0.2 18 Norte 30 Norte 0 -- -- 62
2021-01-12 22:00:00 0.1 15 Noroeste 39 Norte 0 -- -- 62
2021-01-12 21:00:00 0.2 21 Noroeste 36 Norte 0 -- -- 61
2021-01-12 20:00:00 1.2 29 Norte 41 Norte 0 -- -- 56
2021-01-12 19:00:00 1.5 28 Norte 42 Norte 0 -- -- 55
2021-01-12 18:00:00 2.8 21 Norte 35 Norte 0 -- -- 49
2021-01-12 17:00:00 4.2 12 Norte 32 Norte 0 -- -- 43
2021-01-12 16:00:00 4.9 21 Norte 38 Norte 0 -- -- 42
2021-01-12 15:00:00 4.8 22 Norte 34 Norte 0 -- -- 44
2021-01-12 14:00:00 5.7 16 Norte 31 Norte 0 -- -- 37
2021-01-12 13:00:00 5.7 15 Norte 26 Norte 0 -- -- 34
2021-01-12 12:00:00 4.3 13 Norte 22 Norte 0.2 -- -- 44
2021-01-12 11:00:00 3.7 5 Noroeste 24 Noroeste 0.2 -- -- 52
2021-01-12 10:00:00 0.9 14 Noroeste 22 Norte 0 -- -- 62
2021-01-12 09:00:00 -1.3 12 Noroeste 23 Noroeste 0 -- -- 65
2021-01-12 08:00:00 -2.4 14 Noroeste 21 Noroeste 0 -- -- 66
2021-01-12 07:00:00 -2.4 15 Noroeste 26 Noroeste 0 -- -- 62
2021-01-12 06:00:00 -2.2 10 Norte 23 Noroeste 0 -- -- 58
2021-01-12 05:00:00 -2.4 9 Noroeste 23 Norte 0 -- -- 59
2021-01-12 04:00:00 -2.3 5 Norte 19 Noroeste 0 -- -- 59
2021-01-12 03:00:00 -2.5 14 Norte 27 Norte 0 -- -- 61
2021-01-12 02:00:00 -2.7 10 Norte 30 Noroeste 0 -- -- 61
2021-01-12 01:00:00 -4.3 17 Norte 31 Norte 0 -- -- 77
2021-01-12 00:00:00 -4.8 12 Noroeste 29 Norte 0 -- -- 80
2021-01-11 23:00:00 -4.6 14 Noroeste 23 Norte 0 -- -- 78
2021-01-11 22:00:00 -4.4 14 Norte 28 Norte 0 -- -- 80
2021-01-11 21:00:00 -4.3 15 Norte 41 Norte 0 -- -- 78
2021-01-11 20:00:00 -4 26 Norte 42 Norte 0 -- -- 77
2021-01-11 19:00:00 -4 22 Norte 40 Norte 0 -- -- 77
2021-01-11 18:00:00 -3.3 19 Norte 36 Norte 0 -- -- 70
2021-01-11 17:00:00 -2.5 19 Norte 38 Norte 0 -- -- 71
2021-01-11 16:00:00 -2 24 Norte 46 Norte 0 -- -- 71
2021-01-11 15:00:00 -1.2 23 Norte 50 Norte 0 -- -- 67
2021-01-11 14:00:00 -0.9 27 Norte 66 Nordeste 0.2 -- -- 61
2021-01-11 13:00:00 -1.8 37 Norte 65 Norte 0 -- -- 69
2021-01-11 12:00:00 -2.4 40 Norte 68 Norte 0 -- -- 73
2021-01-11 11:00:00 -3.2 45 Norte 70 Norte 0 -- -- 76
2021-01-11 10:00:00 -3.9 39 Norte 68 Norte 0 -- -- 79
2021-01-11 09:00:00 -4.7 41 Norte 72 Norte 0 -- -- 82
2021-01-11 08:00:00 -4.8 41 Norte 63 Nordeste 0 -- -- 80
2021-01-11 07:00:00 -4.8 34 Norte 60 Norte 0 -- -- 82
2021-01-11 06:00:00 -5 39 Norte 72 Norte 0 -- -- 84
2021-01-11 05:00:00 -5.3 40 Norte 64 Norte 0 -- -- 83
2021-01-11 04:00:00 -5 37 Norte 62 Norte 0 -- -- 80
2021-01-11 03:00:00 -4.8 37 Norte 58 Norte 0 -- -- 77
2021-01-11 02:00:00 -4.9 29 Norte 55 Norte 0 -- -- 80
2021-01-11 01:00:00 -4.4 32 Norte 63 Norte 0 -- -- 74
2021-01-11 00:00:00 -4.7 30 Norte 55 Norte 0 -- -- 78
2021-01-10 23:00:00 -5.1 30 Norte 57 Norte 0 -- -- 80
2021-01-10 22:00:00 -5.3 30 Norte 54 Norte 0 -- -- 81
2021-01-10 21:00:00 -5.2 34 Norte 64 Norte 0 -- -- 84
2021-01-10 20:00:00 -4.8 36 Norte 60 Norte 0 -- -- 87
2021-01-10 19:00:00 -4.5 27 Norte 47 Norte 0 -- -- 88
2021-01-10 18:00:00 -4.1 22 Norte 40 Norte 0 -- -- 86
2021-01-10 17:00:00 -3.9 23 Norte 47 Norte 0 -- -- 85
2021-01-10 16:00:00 -3.4 24 Norte 41 Noroeste 0 -- -- 84
2021-01-10 15:00:00 -2.6 21 Norte 40 Norte 0 -- -- 82
2021-01-10 14:00:00 -2.7 24 Norte 44 Norte 0.4 -- -- 84
2021-01-10 13:00:00 -2.4 22 Norte 41 Norte 1 -- -- 85
2021-01-10 12:00:00 -2.4 21 Norte 37 Norte 0 -- -- 87
2021-01-10 11:00:00 -3.5 19 Norte 40 Norte 0 -- -- 90
2021-01-10 10:00:00 -3.9 23 Norte 40 Norte 0 -- -- 92
2021-01-10 09:00:00 -4.2 13 Norte 43 Norte 0 -- -- 90
2021-01-10 08:00:00 -4.5 24 Norte 41 Norte 0 -- -- 89
2021-01-10 07:00:00 -4.6 23 Norte 41 Norte 0 -- -- 86
2021-01-10 06:00:00 -4.2 22 Norte 36 Norte 0 -- -- 84
2021-01-10 05:00:00 -4.3 19 Norte 36 Norte 0 -- -- 85
2021-01-10 04:00:00 -3.9 19 Norte 35 Norte 0 -- -- 82
2021-01-10 03:00:00 -3.9 23 Noroeste 37 Noroeste 0 -- -- 85
2021-01-10 02:00:00 -3.7 19 Norte 33 Norte 0 -- -- 81
2021-01-10 01:00:00 -3.2 12 Norte 24 Norte 0 -- -- 84
2021-01-10 00:00:00 -2.5 8 Norte 16 Norte 0 -- -- 87
2021-01-09 23:00:00 -2.4 8 Norte 19 Noroeste 0 -- -- 86
2021-01-09 22:00:00 -2.4 8 Noroeste 23 Norte 0 -- -- 87
2021-01-09 21:00:00 -2.4 9 Norte 28 Norte 0 -- -- 85
2021-01-09 20:00:00 -3.2 9 Noroeste 22 Norte 0 -- -- 88
2021-01-09 19:00:00 -3.8 12 Norte 22 Norte 0 -- -- 87
2021-01-09 18:00:00 -4.1 8 Norte 23 Noroeste 0 -- -- 90
2021-01-09 17:00:00 -3.9 9 Norte 23 Norte 0 -- -- 86
2021-01-09 16:00:00 -3.9 12 Norte 23 Norte 0 -- -- 86
2021-01-09 15:00:00 -3.7 9 Norte 22 Norte 0 -- -- 87
2021-01-09 14:00:00 -4.5 9 Nordeste 27 Norte 0 -- -- 88
2021-01-09 13:00:00 -5.6 20 Norte 32 Norte 0 -- -- 88
2021-01-09 12:00:00 -5.3 23 Norte 37 Norte 0 -- -- 86
2021-01-09 11:00:00 -5.8 20 Norte 38 Norte 0 -- -- 86
2021-01-09 10:00:00 -5.5 23 Norte 37 Norte 0 -- -- 84
2021-01-09 09:00:00 -5.2 15 Noroeste 31 Norte 0 -- -- 86
2021-01-09 08:00:00 -4.6 16 Noroeste 25 Noroeste 0 -- -- 87
2021-01-09 07:00:00 -4.5 9 Nordeste 22 Norte 0 -- -- 88
2021-01-09 06:00:00 -4.7 14 Norte 24 Norte 0 -- -- 87
2021-01-09 05:00:00 -4.8 11 Norte 24 Nordeste 0 -- -- 87
2021-01-09 04:00:00 -4.8 11 Norte 26 Norte 0 -- -- 86
2021-01-09 03:00:00 -4.8 9 Norte 27 Norte 0 -- -- 86
2021-01-09 02:00:00 -5.1 15 Norte 30 Norte 0 -- -- 86
2021-01-09 01:00:00 -4.7 16 Norte 26 Noroeste 0 -- -- 85
2021-01-09 00:00:00 -4.4 6 Norte 17 Norte 0 -- -- 85
2021-01-08 23:00:00 -3.8 8 Noroeste 21 Noroeste 0 -- -- 76
2021-01-08 22:00:00 -3.2 9 Norte 19 Norte 0 -- -- 67
2021-01-08 21:00:00 -3.9 8 Norte 26 Norte 0 -- -- 70
2021-01-08 20:00:00 -2.9 8 Norte 14 Norte 0 -- -- 69
2021-01-08 19:00:00 -3.2 5 Norte 15 Norte 0 -- -- 72
2021-01-08 18:00:00 -3.1 9 Norte 21 Noroeste 0 -- -- 70
2021-01-08 17:00:00 -2.4 12 Norte 22 Noroeste 0 -- -- 61
2021-01-08 16:00:00 -1.7 14 Noroeste 24 Noroeste 0 -- -- 56
2021-01-08 15:00:00 -1.3 15 Norte 23 Norte 0 -- -- 52
2021-01-08 14:00:00 -1.6 13 Norte 23 Norte 0 -- -- 54
2021-01-08 13:00:00 -1.9 14 Norte 29 Noroeste 0 -- -- 54
2021-01-08 12:00:00 -1 9 Norte 22 Norte 0 -- -- 49
2021-01-08 11:00:00 -3.2 15 Norte 23 Noroeste 0 -- -- 57
2021-01-08 10:00:00 -5.5 10 Norte 22 Norte 0 -- -- 63
2021-01-08 09:00:00 -8.2 6 Norte 19 Norte 0 -- -- 70
2021-01-08 08:00:00 -8.1 8 Norte 20 Norte 0 -- -- 69
2021-01-08 07:00:00 -10.7 8 Noroeste 14 Norte 0 -- -- 78
2021-01-08 06:00:00 -10.6 12 Norte 16 Norte 0 -- -- 78
2021-01-08 05:00:00 -10.4 7 Norte 18 Norte 0 -- -- 79
2021-01-08 04:00:00 -9.2 12 Norte 24 Norte 0 -- -- 77
2021-01-08 03:00:00 -8.3 12 Norte 23 Norte 0 -- -- 78
2021-01-08 02:00:00 -7.7 14 Norte 25 Norte 0 -- -- 79
2021-01-08 01:00:00 -7.7 13 Norte 21 Norte 0 -- -- 82
2021-01-08 00:00:00 -7.2 11 Norte 20 Norte 0 -- -- 83
2021-01-07 23:00:00 -7 14 Norte 22 Norte 0 -- -- 85
2021-01-07 22:00:00 -6.6 8 Norte 14 Norte 0 -- -- 81
2021-01-07 21:00:00 -6.5 8 Norte 18 Norte 0 -- -- 79
2021-01-07 20:00:00 -6.9 6 Norte 16 Norte 0 -- -- 77
2021-01-07 19:00:00 -5.5 11 Norte 16 Norte 0 -- -- 73
2021-01-07 18:00:00 -4 9 Norte 21 Norte 0 -- -- 67
2021-01-07 17:00:00 -2.4 12 Norte 22 Noroeste 0 -- -- 64
2021-01-07 16:00:00 -1.8 9 Nordeste 20 Nordeste 0 -- -- 62
2021-01-07 15:00:00 -1.6 10 Norte 20 Nordeste 0 -- -- 63
2021-01-07 14:00:00 -1.6 10 Nordeste 24 Norte 0 -- -- 63
2021-01-07 13:00:00 -2.2 15 Norte 29 Norte 0 -- -- 65
2021-01-07 12:00:00 -2.3 14 Norte 29 Norte 0 -- -- 65
2021-01-07 11:00:00 -2.9 16 Norte 33 Este 0 -- -- 67
2021-01-07 10:00:00 -3.6 13 Noroeste 32 Norte 0 -- -- 71
2021-01-07 09:00:00 -4.3 8 Norte 22 Norte 0 -- -- 73
2021-01-07 08:00:00 -5.4 0 Calma 24 Norte 0 -- -- 76
2021-01-07 07:00:00 -6.1 8 Norte 23 Norte 0 -- -- 83
2021-01-07 06:00:00 -8.6 11 Norte 19 Norte 0 -- -- 85
2021-01-07 05:00:00 -8.3 6 Norte 13 Norte 0 -- -- 86
2021-01-07 04:00:00 -8.5 5 Norte 13 Norte 0 -- -- 87
2021-01-07 03:00:00 -9.2 6 Norte 13 Norte 0 -- -- 86
2021-01-07 02:00:00 -9.4 6 Norte 12 Norte 0 -- -- 88
2021-01-07 01:00:00 -10 6 Norte 12 Norte 0 -- -- 88
2021-01-07 00:00:00 -9.8 9 Norte 12 Norte 0 -- -- 87
2021-01-06 23:00:00 -9.5 9 Norte 14 Norte 0 -- -- 88
2021-01-06 22:00:00 -8.9 5 Noroeste 10 Norte 0 -- -- 86
2021-01-06 21:00:00 -8.4 5 Norte 13 Noroeste 0 -- -- 85
2021-01-06 20:00:00 -7.4 5 Norte 10 Norte 0 -- -- 82
2021-01-06 19:00:00 -5.3 7 Norte 9 Norte 0 -- -- 78
2021-01-06 18:00:00 -3.1 0 Calma 6 Noroeste 0 -- -- 73
2021-01-06 17:00:00 -1.6 3 Nordeste 15 Este 0 -- -- 66
2021-01-06 16:00:00 -0.7 8 Norte 15 Norte 0 -- -- 64
2021-01-06 15:00:00 -0.4 6 Norte 17 Norte 0 -- -- 61
2021-01-06 14:00:00 -0.5 9 Norte 16 Norte 0 -- -- 62
2021-01-06 13:00:00 -0.3 9 Noroeste 23 Noroeste 0 -- -- 63
2021-01-06 12:00:00 -0.9 11 Norte 23 Norte 0 -- -- 64
2021-01-06 11:00:00 -1.5 11 Noroeste 23 Noroeste 0 -- -- 66
2021-01-06 10:00:00 -2.7 8 Norte 20 Norte 0 -- -- 72
2021-01-06 09:00:00 -5.6 4 Norte 15 Norte 0 -- -- 83
2021-01-06 08:00:00 -6 6 Norte 19 Norte 0 -- -- 82
2021-01-06 07:00:00 -4.8 7 Norte 21 Norte 0 -- -- 80
2021-01-06 06:00:00 -4.4 13 Norte 21 Norte 0 -- -- 82
2021-01-06 05:00:00 -4.3 12 Norte 20 Norte 0 -- -- 82
2021-01-06 04:00:00 -4.5 9 Norte 20 Norte 0 -- -- 83
2021-01-06 03:00:00 -4.7 7 Norte 18 Norte 0 -- -- 83
2021-01-06 02:00:00 -4.8 6 Norte 23 Noroeste 0 -- -- 85
2021-01-06 01:00:00 -4.5 6 Norte 14 Noroeste 0 -- -- 83
2021-01-06 00:00:00 -3.7 6 Norte 18 Noroeste 0 -- -- 87
2021-01-05 23:00:00 -6.4 7 Noroeste 13 Noroeste 0 -- -- 92
2021-01-05 22:00:00 -8 4 Norte 8 Norte 0 -- -- 88
2021-01-05 21:00:00 -6.6 0 Calma 12 Norte 0 -- -- 86
2021-01-05 20:00:00 -7.4 5 Norte 8 Nordeste 0 -- -- 87
2021-01-05 19:00:00 -5.2 0 Calma 10 Noroeste 0 -- -- 81
2021-01-05 18:00:00 -2.7 7 Noroeste 14 Noroeste 0 -- -- 76
2021-01-05 17:00:00 -1.3 4 Norte 18 Norte 0 -- -- 75
2021-01-05 16:00:00 0 3 Norte 15 Noroeste 0 -- -- 72
2021-01-05 15:00:00 -0.4 8 Norte 15 Norte 0 -- -- 75
2021-01-05 14:00:00 0.2 6 Norte 22 Noroeste 0 -- -- 71
2021-01-05 13:00:00 -0.5 6 Noroeste 20 Norte 0 -- -- 75
2021-01-05 12:00:00 -0.9 8 Noroeste 19 Noroeste 0.2 -- -- 76
2021-01-05 11:00:00 -3.6 0 Calma 4 Sudeste 0 -- -- 85
2021-01-05 10:00:00 -5.3 2 Sudeste 8 Sur 0 -- -- 87
2021-01-05 09:00:00 -5.8 3 Noroeste 7 Noroeste 0 -- -- 90
2021-01-05 08:00:00 -6.3 6 Sudeste 13 Sur 0 -- -- 87
2021-01-05 07:00:00 -5.1 2 Sudeste 10 Sudeste 0 -- -- 83
2021-01-05 06:00:00 -4 4 Nordeste 13 Sudeste 0 -- -- 80
2021-01-05 05:00:00 -4.3 5 Este 15 Sudeste 0 -- -- 81
2021-01-05 04:00:00 -6.4 0 Calma 8 Noroeste 0 -- -- 86
2021-01-05 03:00:00 -7.6 0 Calma 8 Norte 0 -- -- 82
2021-01-05 02:00:00 -5.7 0 Calma 8 Norte 0 -- -- 83
2021-01-05 01:00:00 -4.5 4 Este 11 Este 0 -- -- 80
2021-01-05 00:00:00 -3.6 4 Noroeste 24 Sudoeste 0 -- -- 78
2021-01-04 23:00:00 -3.6 7 Nordeste 21 Este 0 -- -- 81
2021-01-04 22:00:00 -3.6 4 Nordeste 24 Norte 0 -- -- 78
2021-01-04 21:00:00 -3.5 9 Norte 40 Noroeste 0 -- -- 77
2021-01-04 20:00:00 -3.5 17 Noroeste 36 Norte 0 -- -- 81
2021-01-04 19:00:00 -3.2 16 Norte 28 Norte 0 -- -- 81
2021-01-04 18:00:00 -2.8 3 Noroeste 28 Norte 0 -- -- 80
2021-01-04 17:00:00 -1.7 15 Noroeste 32 Noroeste 0 -- -- 73
2021-01-04 16:00:00 -0.9 10 Noroeste 39 Norte 0 -- -- 65
2021-01-04 15:00:00 0.4 17 Norte 33 Norte 0 -- -- 62
2021-01-04 14:00:00 2.5 10 Oeste 33 Oeste 0 -- -- 60
2021-01-04 13:00:00 1.4 6 Noroeste 32 Oeste 0 -- -- 61
2021-01-04 12:00:00 1 12 Oeste 22 Oeste 0.2 -- -- 64
2021-01-04 11:00:00 -1.2 6 Sudeste 14 Sudeste 0.4 -- -- 74
2021-01-04 10:00:00 -6.8 3 Noroeste 9 Norte 0 -- -- 91
2021-01-04 09:00:00 -10.9 5 Norte 9 Norte 0 -- -- 91
2021-01-04 08:00:00 -11.7 3 Norte 13 Norte 0 -- -- 89
2021-01-04 07:00:00 -11.1 5 Norte 10 Norte 0 -- -- 89
2021-01-04 06:00:00 -10.5 5 Norte 11 Norte 0 -- -- 88
2021-01-04 05:00:00 -9 4 Norte 9 Noroeste 0 -- -- 90
2021-01-04 04:00:00 -10 0 Calma 5 Noroeste 0 -- -- 90
2021-01-04 03:00:00 -8.5 3 Norte 9 Norte 0 -- -- 90
2021-01-04 02:00:00 -8.7 0 Calma 9 Norte 0 -- -- 89
2021-01-04 01:00:00 -7.7 2 Norte 5 Norte 0 -- -- 89
2021-01-04 00:00:00 -4.9 2 Sudoeste 6 Noroeste 0 -- -- 87
2021-01-03 23:00:00 -3.5 0 Calma 10 Oeste 0 -- -- 90
2021-01-03 22:00:00 -3.7 2 Norte 8 Norte 0 -- -- 88
2021-01-03 21:00:00 -2.4 3 Noroeste 12 Norte 0 -- -- 86
2021-01-03 20:00:00 -2.1 3 Oeste 21 Oeste 0 -- -- 85
2021-01-03 19:00:00 -2.1 12 Oeste 24 Oeste 0 -- -- 84
2021-01-03 18:00:00 -1.8 14 Oeste 26 Oeste 0 -- -- 82
2021-01-03 17:00:00 -0.4 8 Noroeste 24 Oeste 0 -- -- 72
2021-01-03 16:00:00 1.5 14 Oeste 28 Oeste 0 -- -- 67
2021-01-03 15:00:00 2.8 8 Noroeste 29 Oeste 0 -- -- 59
2021-01-03 14:00:00 2.1 10 Oeste 27 Oeste 0 -- -- 64
2021-01-03 13:00:00 2.6 11 Oeste 23 Oeste 1 -- -- 64
2021-01-03 12:00:00 0.7 7 Noroeste 13 Norte 1 -- -- 72
2021-01-03 11:00:00 -1.5 0 Calma 10 Sur 0 -- -- 85
2021-01-03 10:00:00 -1.6 2 Sudeste 13 Norte 0 -- -- 81
2021-01-03 09:00:00 -2.4 3 Noroeste 17 Noroeste 0 -- -- 83
2021-01-03 08:00:00 -2.6 5 Norte 18 Norte 0 -- -- 83
2021-01-03 07:00:00 -2.7 8 Norte 29 Norte 0 -- -- 85
2021-01-03 06:00:00 -2.9 12 Norte 35 Noroeste 0 -- -- 84
2021-01-03 05:00:00 -2.9 21 Norte 40 Noroeste 0 -- -- 84
2021-01-03 04:00:00 -3 17 Norte 35 Norte 0 -- -- 85
2021-01-03 03:00:00 -3.4 12 Norte 34 Norte 0 -- -- 88
2021-01-03 02:00:00 -3.6 12 Norte 34 Norte 0 -- -- 88
2021-01-03 01:00:00 -4 17 Norte 42 Norte 0 -- -- 85
2021-01-03 00:00:00 -4.5 27 Norte 52 Norte 0 -- -- 82
2021-01-02 23:00:00 -4.2 35 Norte 56 Norte 0 -- -- 81
2021-01-02 22:00:00 -4.1 32 Norte 62 Norte 0 -- -- 80
2021-01-02 21:00:00 -4 26 Norte 53 Norte 0 -- -- 81
2021-01-02 20:00:00 -4.1 28 Norte 67 Norte 0 -- -- 81
2021-01-02 19:00:00 -4 31 Norte 56 Norte 0 -- -- 85
2021-01-02 18:00:00 -3.7 28 Norte 61 Norte 0 -- -- 86
2021-01-02 17:00:00 -3.8 32 Norte 63 Noroeste 0 -- -- 85
2021-01-02 16:00:00 -3.5 36 Norte 62 Norte 0 -- -- 88
2021-01-02 15:00:00 -3.1 31 Norte 61 Norte 0 -- -- 81
2021-01-02 14:00:00 -2.4 23 Norte 53 Norte 0 -- -- 84